Terminal Aerodrome Forecast
Issued by NWS Grand Forks, ND

Home | Current Version | Previous Version | Text Only | Print | Product List | Glossary On
Versions: 1 2 3 4 5 6 7 8 9 10 11 12 13 14 15 16
436
FTUS43 KFGF 270520
TAFFAR
TAF
KFAR 270520Z 2706/2806 19010KT P6SM SCT100
     FM271000 33015G24KT P6SM SKC
     FM271400 34022G33KT P6SM FEW050
     FM272300 01015G25KT P6SM FEW050
     FM280200 36013KT P6SM SKC=

USA.gov is the U.S. government's official web portal to all federal, state and local government web resources and services.